Time;durP1;ratioP1;P1;durP2;ratioP2;P2;SDS_P1;SDS_P2;PMS_P1;PMS_P2;Temp;Humidity;BMP_temperature;BMP_pressure;BME280_temperature;BME280_humidity;BME280_pressure;Samples;Min_cycle;Max_cycle;Signal;HPM_P1;HPM_P2
2020/12/26 00:01:11;;;;;;;;;22.75;22.00;;;;;9.03;79.96;100798.94;4423508;32;12273;-80
2020/12/26 00:07:14;;;;;;;;;16.50;16.50;;;;;9.01;80.13;100792.94;4434713;32;12331;-80
2020/12/26 00:10:13;;;;;;;;;21.75;21.75;;;;;9.03;79.97;100793.44;4438166;32;12966;-79
2020/12/26 00:12:43;;;;;;;;;19.50;19.50;;;;;9.02;79.79;100795.38;4439369;32;12228;-79
2020/12/26 00:15:12;;;;;;;;;24.75;24.75;;;;;9.04;79.56;100800.56;4450798;32;12393;-80
2020/12/26 00:17:41;;;;;;;;;33.50;33.50;;;;;9.01;79.83;100798.47;4414091;32;12958;-80
2020/12/26 00:20:37;;;;;;;;;22.25;22.25;;;;;8.93;79.93;100805.56;4433676;32;12270;-80
2020/12/26 00:23:33;;;;;;;;;16.00;16.00;;;;;8.98;79.43;100799.91;4435062;32;12969;-80
2020/12/26 00:26:29;;;;;;;;;15.75;15.75;;;;;8.91;79.45;100805.06;4432437;32;12249;-80
2020/12/26 00:29:25;;;;;;;;;29.25;26.50;;;;;8.93;79.46;100802.00;4434663;32;12275;-79
2020/12/26 00:32:21;;;;;;;;;22.00;22.00;;;;;8.88;79.86;100792.72;4432981;32;12400;-80
2020/12/26 00:35:18;;;;;;;;;32.75;29.25;;;;;8.78;80.09;100793.00;4434658;32;12402;-79
2020/12/26 00:37:45;;;;;;;;;20.50;20.50;;;;;8.82;79.67;100791.25;4426806;32;12296;-80
2020/12/26 00:40:42;;;;;;;;;15.00;14.25;;;;;8.83;79.72;100795.63;4448430;32;12953;-80
2020/12/26 00:43:38;;;;;;;;;24.25;24.25;;;;;8.86;79.58;100783.13;4449385;32;12263;-79
2020/12/26 00:46:07;;;;;;;;;24.75;24.75;;;;;8.84;79.61;100788.97;4449833;32;12274;-79
2020/12/26 00:49:03;;;;;;;;;27.75;27.00;;;;;8.84;80.02;100794.50;4432292;32;12410;-78
2020/12/26 00:51:59;;;;;;;;;21.50;21.25;;;;;8.86;80.12;100789.47;4434054;32;12344;-79
2020/12/26 00:54:26;;;;;;;;;29.25;27.50;;;;;8.88;80.10;100783.63;4434129;32;12394;-79
2020/12/26 00:57:23;;;;;;;;;37.75;37.75;;;;;8.91;80.17;100783.81;4422225;32;12347;-78
2020/12/26 01:00:19;;;;;;;;;32.75;32.25;;;;;8.96;80.03;100776.53;4433575;32;12294;-80
2020/12/26 01:03:08;;;;;;;;;37.00;34.25;;;;;8.98;79.77;100788.88;4433317;32;12505;-80
2020/12/26 01:05:59;;;;;;;;;40.25;38.25;;;;;8.94;80.17;100779.59;4424165;32;12366;-77
2020/12/26 01:08:27;;;;;;;;;43.75;40.75;;;;;8.93;80.11;100774.41;4435050;32;12418;-80
2020/12/26 01:11:20;;;;;;;;;30.00;30.00;;;;;8.93;80.36;100768.91;4435455;32;12305;-80
2020/12/26 01:13:47;;;;;;;;;40.25;38.00;;;;;8.95;79.93;100775.72;4433212;32;12340;-80
2020/12/26 01:16:48;;;;;;;;;36.50;33.75;;;;;8.87;79.97;100765.44;4434654;32;12335;-80
2020/12/26 01:19:44;;;;;;;;;41.25;36.75;;;;;8.70;80.14;100779.16;4433857;32;12365;-80
2020/12/26 01:22:14;;;;;;;;;29.50;27.75;;;;;8.59;80.73;100771.16;4433251;32;12391;-80
2020/12/26 01:24:45;;;;;;;;;30.25;29.25;;;;;8.71;80.66;100781.59;4433695;32;12319;-80
2020/12/26 01:27:30;;;;;;;;;34.00;34.00;;;;;8.71;80.65;100778.84;4420107;32;12350;-79
2020/12/26 01:30:13;;;;;;;;;30.25;30.25;;;;;8.78;80.29;100775.63;4419592;32;12402;-80
2020/12/26 01:33:12;;;;;;;;;35.00;33.00;;;;;8.68;80.17;100778.66;4420856;32;13206;-80
2020/12/26 01:36:13;;;;;;;;;34.25;31.00;;;;;8.73;80.29;100781.28;4433059;32;12420;-80
2020/12/26 01:38:40;;;;;;;;;33.00;30.00;;;;;8.67;80.24;100780.63;4434634;32;12363;-79
2020/12/26 01:41:37;;;;;;;;;29.75;28.25;;;;;8.65;80.26;100782.84;4433239;32;12350;-80
2020/12/26 01:44:33;;;;;;;;;26.50;25.50;;;;;8.71;79.97;100781.59;4433480;32;12332;-80
2020/12/26 01:47:28;;;;;;;;;22.50;22.50;;;;;8.67;80.09;100791.66;4434326;32;12384;-81
2020/12/26 01:50:10;;;;;;;;;29.75;29.75;;;;;8.58;80.51;100788.00;4435335;32;12305;-80
2020/12/26 01:53:06;;;;;;;;;27.75;27.75;;;;;8.57;80.67;100786.37;4417374;32;12348;-80
2020/12/26 01:55:49;;;;;;;;;37.00;35.50;;;;;8.57;80.51;100784.44;4427608;32;12366;-80
2020/12/26 01:58:20;;;;;;;;;31.25;31.25;;;;;8.65;80.26;100780.09;4433531;32;12992;-80
2020/12/26 02:00:47;;;;;;;;;30.75;30.00;;;;;8.66;80.14;100776.19;4433705;32;12366;-79
2020/12/26 02:03:43;;;;;;;;;32.75;29.75;;;;;8.67;79.98;100785.31;4433408;32;12343;-79
2020/12/26 02:06:12;;;;;;;;;30.00;29.50;;;;;8.62;80.26;100798.09;4433526;32;12341;-80
2020/12/26 02:09:07;;;;;;;;;28.50;28.50;;;;;8.62;80.27;100783.50;4433227;32;12313;-79
2020/12/26 02:12:03;;;;;;;;;31.75;31.75;;;;;8.68;79.85;100789.69;4434756;32;12323;-79
2020/12/26 02:14:59;;;;;;;;;34.50;33.25;;;;;8.60;80.13;100794.03;4433960;32;12551;-78
2020/12/26 02:17:31;;;;;;;;;29.75;29.75;;;;;8.57;80.37;100784.44;4434168;32;12317;-79
2020/12/26 02:20:27;;;;;;;;;28.00;28.00;;;;;8.56;80.47;100782.81;4434635;32;12291;-79
2020/12/26 02:23:26;;;;;;;;;30.75;29.75;;;;;8.61;80.16;100779.94;4433248;32;12401;-79
2020/12/26 02:26:28;;;;;;;;;22.50;22.25;;;;;8.68;79.70;100781.44;4432572;32;12320;-79
2020/12/26 02:29:24;;;;;;;;;25.25;25.25;;;;;8.63;79.85;100782.37;4436248;32;12382;-79
2020/12/26 02:32:19;;;;;;;;;20.75;20.00;;;;;8.65;79.43;100785.59;4420507;32;12388;-79
2020/12/26 02:35:16;;;;;;;;;28.50;28.50;;;;;8.67;79.47;100788.06;4432185;32;12376;-80
2020/12/26 02:38:14;;;;;;;;;41.00;39.25;;;;;8.60;79.77;100792.09;4436390;32;12373;-79
2020/12/26 02:41:10;;;;;;;;;37.00;34.75;;;;;8.66;79.82;100791.94;4435965;32;12392;-80
2020/12/26 02:43:38;;;;;;;;;37.50;37.50;;;;;8.61;80.54;100793.72;4437060;32;12518;-80
2020/12/26 02:46:33;;;;;;;;;39.00;38.50;;;;;8.65;80.57;100799.41;4426433;32;12319;-80
2020/12/26 02:49:19;;;;;;;;;39.25;38.25;;;;;8.39;81.19;100798.44;4424150;32;12315;-80
2020/12/26 02:52:14;;;;;;;;;40.50;38.00;;;;;8.40;81.20;100800.03;4420134;32;12371;-80
2020/12/26 02:54:42;;;;;;;;;32.75;31.75;;;;;8.31;81.22;100803.53;4422338;32;12325;-80
2020/12/26 02:57:37;;;;;;;;;36.00;35.50;;;;;8.52;80.35;100803.06;4435800;32;12512;-80
2020/12/26 03:00:35;;;;;;;;;25.00;24.00;;;;;8.43;80.54;100802.97;4434644;32;13011;-80
2020/12/26 03:03:31;;;;;;;;;29.75;28.50;;;;;8.43;80.34;100808.50;4435432;32;12427;-80
2020/12/26 03:06:12;;;;;;;;;29.25;24.25;;;;;8.46;80.09;100809.81;4420739;32;12328;-79
2020/12/26 03:08:41;;;;;;;;;25.25;25.25;;;;;8.40;80.35;100805.56;4431207;32;12302;-79
2020/12/26 03:11:21;;;;;;;;;24.00;24.00;;;;;8.36;80.13;100816.41;4436524;32;12317;-79
2020/12/26 03:14:18;;;;;;;;;24.25;24.00;;;;;8.35;80.04;100817.50;4436304;32;12489;-79
2020/12/26 03:16:45;;;;;;;;;28.50;28.00;;;;;8.27;80.24;100834.75;4436805;32;12296;-80
2020/12/26 03:19:41;;;;;;;;;27.25;25.25;;;;;8.32;79.96;100824.44;4435761;32;12384;-81
2020/12/26 03:22:38;;;;;;;;;41.75;39.00;;;;;8.42;79.33;100817.06;4435931;32;12347;-81
2020/12/26 03:25:34;;;;;;;;;45.75;41.50;;;;;8.32;79.51;100812.59;4434692;32;12982;-81
2020/12/26 03:28:30;;;;;;;;;60.25;51.25;;;;;8.41;79.00;100809.94;4437221;32;11749;-80
2020/12/26 03:31:12;;;;;;;;;65.50;53.50;;;;;8.38;79.00;100808.62;4435965;32;12411;-81
2020/12/26 03:33:39;;;;;;;;;69.50;56.25;;;;;8.21;79.27;100806.53;4435251;32;12323;-80
2020/12/26 03:36:34;;;;;;;;;76.50;60.50;;;;;8.44;78.70;100807.38;4435850;32;12436;-81
2020/12/26 03:39:35;;;;;;;;;69.25;56.50;;;;;8.34;78.94;100804.81;4434231;32;12429;-81
2020/12/26 03:42:16;;;;;;;;;79.00;63.75;;;;;8.44;78.53;100806.56;4434644;32;12374;-80
2020/12/26 03:45:12;;;;;;;;;71.50;58.50;;;;;8.52;78.15;100795.59;4436102;32;12511;-78
2020/12/26 03:48:07;;;;;;;;;72.50;59.00;;;;;8.56;77.78;100793.84;4436832;32;13167;-79
2020/12/26 03:51:03;;;;;;;;;71.50;56.50;;;;;8.35;78.31;100800.97;4433360;32;12458;-79
2020/12/26 03:53:59;;;;;;;;;67.25;56.00;;;;;8.29;78.32;100799.47;4435275;32;12456;-79
2020/12/26 03:56:54;;;;;;;;;50.25;45.00;;;;;8.39;78.05;100802.00;4435424;32;12441;-79
2020/12/26 03:59:22;;;;;;;;;37.00;37.00;;;;;8.31;77.87;100811.78;4435925;32;12333;-79
2020/12/26 04:02:18;;;;;;;;;40.75;39.75;;;;;8.32;77.94;100807.91;4433446;32;12321;-79
2020/12/26 04:05:13;;;;;;;;;33.25;32.75;;;;;8.38;77.80;100802.31;4435155;32;12989;-80
2020/12/26 04:08:10;;;;;;;;;20.75;20.75;;;;;8.42;77.59;100812.38;4434671;32;12376;-80
2020/12/26 04:10:38;;;;;;;;;25.00;24.50;;;;;8.23;77.95;100815.28;4436642;32;12334;-79
2020/12/26 04:13:34;;;;;;;;;35.00;35.00;;;;;7.97;78.61;100812.31;4435155;32;12369;-80
2020/12/26 04:16:30;;;;;;;;;38.50;37.50;;;;;8.07;78.55;100814.03;4434045;32;12353;-79
2020/12/26 04:18:58;;;;;;;;;39.25;36.00;;;;;8.19;78.23;100805.19;4434602;32;12327;-80
2020/12/26 04:21:52;;;;;;;;;32.75;32.25;;;;;8.07;78.46;100806.56;4434611;32;12331;-80
2020/12/26 04:24:48;;;;;;;;;24.00;24.00;;;;;8.22;78.00;100799.09;4433896;32;12318;-79
2020/12/26 04:27:43;;;;;;;;;21.75;21.75;;;;;8.14;78.25;100805.34;4432928;32;12338;-79
2020/12/26 04:30:11;;;;;;;;;21.50;21.50;;;;;7.89;78.88;100804.78;4434555;32;12342;-79
2020/12/26 04:33:06;;;;;;;;;19.00;17.25;;;;;8.16;77.86;100805.84;4435187;32;12360;-79
2020/12/26 04:35:36;;;;;;;;;19.00;19.00;;;;;8.02;78.26;100797.62;4436628;32;12402;-78
2020/12/26 04:38:20;;;;;;;;;19.00;19.00;;;;;8.01;78.49;100804.25;4419002;32;12510;-78
2020/12/26 04:41:19;;;;;;;;;20.75;20.75;;;;;7.85;78.67;100812.03;4432877;32;12360;-79
2020/12/26 04:43:46;;;;;;;;;16.25;15.75;;;;;7.86;79.03;100813.66;4434076;32;12336;-79
2020/12/26 04:46:43;;;;;;;;;22.50;22.50;;;;;8.09;78.00;100820.84;4434660;32;12337;-80
2020/12/26 04:49:13;;;;;;;;;26.75;25.00;;;;;7.95;77.86;100822.81;4434142;32;12377;-79
2020/12/26 04:52:10;;;;;;;;;30.00;30.00;;;;;7.56;79.08;100828.09;4434092;32;12336;-79
2020/12/26 04:54:46;;;;;;;;;40.00;38.75;;;;;7.76;78.52;100819.41;4434050;32;12951;-82
2020/12/26 04:57:34;;;;;;;;;46.50;43.00;;;;;7.65;78.91;100829.00;4421313;32;12322;-80
2020/12/26 05:00:32;;;;;;;;;42.50;40.50;;;;;7.52;79.10;100819.66;4417717;32;12486;-79
2020/12/26 05:03:29;;;;;;;;;36.25;35.00;;;;;7.17;80.02;100815.66;4416791;32;13043;-80
2020/12/26 05:06:05;;;;;;;;;38.00;38.00;;;;;7.19;79.92;100819.75;4430812;32;12329;-80
2020/12/26 05:08:41;;;;;;;;;47.00;43.25;;;;;6.78;80.82;100822.44;4434972;32;12434;-79
2020/12/26 05:11:38;;;;;;;;;43.00;41.00;;;;;6.74;81.50;100828.84;4429658;32;12440;-79
2020/12/26 05:14:33;;;;;;;;;25.25;25.25;;;;;6.82;80.98;100828.94;4419351;32;12388;-80
2020/12/26 05:17:30;;;;;;;;;27.00;27.00;;;;;6.72;81.31;100847.56;4424886;32;12391;-81
2020/12/26 05:20:26;;;;;;;;;34.00;33.50;;;;;7.10;80.27;100862.81;4434019;32;12303;-82
2020/12/26 05:23:10;;;;;;;;;32.00;30.25;;;;;7.00;80.54;100868.53;4436401;32;12335;-83
2020/12/26 05:26:09;;;;;;;;;25.75;25.50;;;;;7.15;80.21;100881.19;4421406;32;12343;-80
2020/12/26 05:29:09;;;;;;;;;35.75;35.75;;;;;6.87;81.01;100905.84;4422565;32;12334;-82
2020/12/26 05:32:07;;;;;;;;;48.00;42.25;;;;;6.86;80.73;100917.97;4428123;32;12418;-80
2020/12/26 05:34:45;;;;;;;;;62.75;52.00;;;;;6.73;81.39;100924.22;4427943;32;12344;-81
2020/12/26 05:37:21;;;;;;;;;79.00;58.33;;;;;6.73;81.53;100926.97;4425319;32;12357;-80
2020/12/26 05:40:03;;;;;;;;;92.67;68.67;;;;;6.80;81.01;100932.91;4420482;32;12385;-80
2020/12/26 05:42:31;;;;;;;;;82.33;63.33;;;;;6.52;82.12;100945.72;4436236;32;9636;-80
2020/12/26 05:45:09;;;;;;;;;76.67;61.00;;;;;6.70;81.26;100946.81;4437120;32;8973;-80
2020/12/26 05:48:06;;;;;;;;;74.33;59.67;;;;;6.71;81.14;100948.44;4437678;32;8883;-81
2020/12/26 05:50:34;;;;;;;;;89.33;69.00;;;;;6.73;81.10;100959.97;4436916;32;8891;-81
2020/12/26 05:53:02;;;;;;;;;99.67;81.00;;;;;6.51;82.04;100963.31;4430487;32;8952;-81
2020/12/26 05:55:45;;;;;;;;;98.33;72.33;;;;;6.72;81.25;100969.31;4420406;32;8912;-80
2020/12/26 05:58:44;;;;;;;;;81.33;65.33;;;;;6.65;81.20;100983.44;4420637;32;8967;-79
2020/12/26 06:01:39;;;;;;;;;76.00;60.33;;;;;6.46;81.33;100990.06;4425168;32;8898;-80
2020/12/26 06:04:35;;;;;;;;;88.00;68.00;;;;;6.40;81.32;100986.56;4422884;32;8949;-81
2020/12/26 06:07:02;;;;;;;;;68.67;57.67;;;;;6.39;80.63;101006.91;4429931;32;8878;-79
2020/12/26 06:09:29;;;;;;;;;68.00;56.00;;;;;6.43;80.14;101007.13;4439454;32;12411;-79
2020/12/26 06:11:56;;;;;;;;;70.00;58.67;;;;;6.33;79.66;100991.59;4437928;32;12605;-80
2020/12/26 06:14:52;;;;;;;;;68.00;54.00;;;;;6.20;79.84;101001.34;4429066;32;8898;-80
2020/12/26 06:17:34;;;;;;;;;47.00;43.25;;;;;6.18;79.83;101011.81;4423357;32;12352;-80
2020/12/26 06:20:15;;;;;;;;;54.50;45.75;;;;;5.78;80.04;101011.16;4440013;32;12435;-79
2020/12/26 06:22:58;;;;;;;;;53.75;44.25;;;;;6.01;80.03;101011.50;4438527;32;12387;-78
2020/12/26 06:25:57;;;;;;;;;68.33;53.67;;;;;5.81;79.85;101023.47;4437316;32;12348;-80
2020/12/26 06:28:54;;;;;;;;;65.00;54.00;;;;;5.75;80.73;101027.37;4433958;32;12343;-79
2020/12/26 06:31:23;;;;;;;;;81.67;62.00;;;;;6.07;79.68;101027.63;4435712;32;12333;-79
2020/12/26 06:33:59;;;;;;;;;84.33;65.00;;;;;6.13;79.77;101025.59;4425418;32;8951;-79
2020/12/26 06:36:56;;;;;;;;;85.00;64.00;;;;;6.01;79.99;101027.97;4437378;32;9576;-79
2020/12/26 06:39:32;;;;;;;;;86.00;66.00;;;;;5.97;79.74;101019.47;4434686;32;8895;-78
2020/12/26 06:42:10;;;;;;;;;79.67;60.00;;;;;5.86;80.42;101023.44;4436856;32;8863;-78
2020/12/26 06:45:10;;;;;;;;;55.75;47.25;;;;;5.92;79.71;101022.31;4429696;32;8892;-81
2020/12/26 06:47:51;;;;;;;;;48.25;41.50;;;;;5.76;79.77;101029.84;4438429;32;12318;-79
2020/12/26 06:50:47;;;;;;;;;33.50;32.00;;;;;5.73;79.69;101027.69;4435701;32;12385;-79
2020/12/26 06:53:44;;;;;;;;;42.50;39.75;;;;;5.49;80.49;101029.56;4420708;32;12390;-78
2020/12/26 06:56:40;;;;;;;;;38.50;33.00;;;;;5.51;80.17;101035.56;4426942;32;13224;-78
2020/12/26 06:59:12;;;;;;;;;35.25;34.50;;;;;5.52;80.27;101043.53;4433765;32;12354;-76
2020/12/26 07:02:09;;;;;;;;;31.50;30.25;;;;;5.67;80.03;101030.75;4433085;32;12457;-78
2020/12/26 07:04:51;;;;;;;;;42.50;40.50;;;;;5.42;80.54;101037.31;4427692;32;12305;-78
2020/12/26 07:07:47;;;;;;;;;43.75;41.00;;;;;5.62;80.04;101026.16;4422674;32;13135;-79
2020/12/26 07:10:35;;;;;;;;;44.75;42.75;;;;;5.40;80.90;101018.41;4425244;32;12318;-80
2020/12/26 07:13:05;;;;;;;;;36.50;33.50;;;;;5.67;80.26;101039.00;4432651;32;12487;-80
2020/12/26 07:15:36;;;;;;;;;51.25;42.25;;;;;5.62;79.90;101039.06;4408483;32;12351;-78
2020/12/26 07:18:24;;;;;;;;;38.00;38.00;;;;;5.32;81.08;101030.00;4420247;32;12349;-81
2020/12/26 07:20:56;;;;;;;;;38.50;36.75;;;;;5.21;81.30;101045.72;4430118;32;13166;-80
2020/12/26 07:23:51;;;;;;;;;28.75;28.75;;;;;5.25;80.63;101051.44;4433958;32;13015;-80
2020/12/26 07:26:47;;;;;;;;;38.25;35.75;;;;;5.40;80.46;101059.53;4435354;32;13105;-80
2020/12/26 07:29:49;;;;;;;;;32.00;31.50;;;;;5.43;80.37;101050.72;4436199;32;12347;-79
2020/12/26 07:32:45;;;;;;;;;35.50;34.00;;;;;5.20;80.40;101035.84;4418972;32;12478;-80
2020/12/26 07:35:26;;;;;;;;;43.50;39.50;;;;;5.16;80.59;101043.00;4421140;32;12445;-79
2020/12/26 07:37:57;;;;;;;;;41.25;39.00;;;;;5.37;80.20;101070.25;4425958;32;12333;-78
2020/12/26 07:40:53;;;;;;;;;39.00;31.25;;;;;5.52;80.00;101072.88;4427502;32;12987;-79
2020/12/26 07:43:50;;;;;;;;;28.75;28.25;;;;;5.31;79.54;101080.47;4434783;32;12376;-79
2020/12/26 07:46:34;;;;;;;;;37.75;33.75;;;;;5.25;79.84;101065.16;4434774;32;12342;-79
2020/12/26 07:49:15;;;;;;;;;33.50;33.50;;;;;5.20;80.39;101068.75;4435003;32;12340;-78
2020/12/26 07:52:12;;;;;;;;;34.75;34.75;;;;;5.39;79.66;101071.63;4434845;32;12358;-78
2020/12/26 07:55:07;;;;;;;;;29.75;29.75;;;;;5.40;79.19;101095.19;4435124;32;12396;-78
2020/12/26 07:57:35;;;;;;;;;33.50;29.50;;;;;5.40;79.52;101108.91;4436126;32;12341;-78
2020/12/26 08:00:41;;;;;;;;;32.50;32.50;;;;;5.49;79.24;101122.84;4434485;32;12338;-79
2020/12/26 08:03:11;;;;;;;;;43.50;41.75;;;;;5.87;78.43;101115.66;4441048;32;12379;-76
2020/12/26 08:05:48;;;;;;;;;44.75;39.25;;;;;5.68;78.63;101104.59;4444428;32;12394;-78
2020/12/26 08:08:21;;;;;;;;;42.25;40.50;;;;;5.64;78.95;101105.44;4432920;32;12321;-78
2020/12/26 08:11:00;;;;;;;;;35.75;35.75;;;;;5.61;78.64;101117.81;4433694;32;12373;-78
2020/12/26 08:14:00;;;;;;;;;41.00;38.00;;;;;5.73;78.24;101123.72;4434724;32;12549;-78
2020/12/26 08:16:56;;;;;;;;;46.00;43.00;;;;;6.09;77.44;101134.41;4418947;32;12416;-79
2020/12/26 08:19:59;;;;;;;;;40.50;39.00;;;;;6.07;77.09;101131.16;4419425;32;12411;-78
2020/12/26 08:22:30;;;;;;;;;38.50;38.50;;;;;5.93;77.16;101149.41;4418871;32;12398;-79
2020/12/26 08:25:30;;;;;;;;;37.50;34.00;;;;;5.77;77.54;101163.22;4418175;32;12426;-77
2020/12/26 08:27:58;;;;;;;;;37.50;37.50;;;;;5.89;77.11;101159.28;4405742;32;12368;-79
2020/12/26 08:30:53;;;;;;;;;31.00;29.75;;;;;6.07;76.59;101140.22;4418964;32;12328;-79
2020/12/26 08:34:02;;;;;;;;;33.75;32.50;;;;;6.03;76.62;101133.62;4430218;32;13132;-79
2020/12/26 08:37:04;;;;;;;;;41.75;36.50;;;;;6.02;76.53;101139.44;4422596;32;12415;-79
2020/12/26 08:39:56;;;;;;;;;44.75;42.75;;;;;6.14;76.45;101159.09;4434711;32;12331;-79
2020/12/26 08:42:45;;;;;;;;;50.50;40.25;;;;;5.84;77.19;101154.66;4432842;32;12407;-79
2020/12/26 08:45:40;;;;;;;;;40.50;38.00;;;;;6.00;76.63;101156.19;4433573;32;12381;-79
2020/12/26 08:48:21;;;;;;;;;46.50;40.00;;;;;6.10;76.09;101169.00;4434936;32;12356;-78
2020/12/26 08:51:24;;;;;;;;;40.25;39.25;;;;;6.01;76.17;101168.81;4418105;32;12447;-80
2020/12/26 08:53:58;;;;;;;;;54.75;45.25;;;;;5.77;76.70;101171.47;4419489;32;12348;-79
2020/12/26 08:56:41;;;;;;;;;59.00;48.75;;;;;6.01;76.20;101184.47;4419740;32;12549;-78
2020/12/26 08:59:36;;;;;;;;;57.75;47.50;;;;;6.03;75.90;101199.53;4418182;32;12432;-78
2020/12/26 09:02:34;;;;;;;;;57.75;50.50;;;;;6.01;75.30;101201.75;4430868;32;12342;-77
2020/12/26 09:05:31;;;;;;;;;62.50;53.00;;;;;6.15;75.60;101198.34;4422222;32;12320;-78
2020/12/26 09:08:31;;;;;;;;;65.25;54.50;;;;;6.37;75.26;101202.25;4421269;32;12332;-77
2020/12/26 09:11:11;;;;;;;;;63.25;52.75;;;;;6.31;74.98;101202.59;4428356;32;12369;-78
2020/12/26 09:13:50;;;;;;;;;69.00;56.67;;;;;6.53;74.81;101197.41;4426732;32;12390;-78
2020/12/26 09:16:18;;;;;;;;;70.00;55.25;;;;;6.53;75.13;101200.16;4434786;32;12385;-78
2020/12/26 09:18:50;;;;;;;;;61.25;50.25;;;;;6.59;74.76;101200.91;4426996;32;12511;-77
2020/12/26 09:21:45;;;;;;;;;63.50;53.00;;;;;6.60;74.60;101195.16;4422969;32;12365;-78
2020/12/26 09:24:30;;;;;;;;;72.75;56.00;;;;;6.47;74.42;101197.75;4434425;32;12469;-78
2020/12/26 09:27:25;;;;;;;;;64.67;53.00;;;;;6.36;74.62;101206.13;4434185;32;12391;-78
2020/12/26 09:30:23;;;;;;;;;50.00;44.25;;;;;6.64;73.96;101222.84;4429896;32;8912;-79
2020/12/26 09:32:58;;;;;;;;;45.25;41.75;;;;;6.18;74.37;101209.56;4433505;32;12323;-78
2020/12/26 09:35:25;;;;;;;;;35.75;34.75;;;;;6.43;74.12;101211.25;4433726;32;12326;-79
2020/12/26 09:38:22;;;;;;;;;40.00;38.75;;;;;6.45;74.18;101206.31;4433051;32;12423;-78
2020/12/26 09:41:22;;;;;;;;;33.00;32.00;;;;;6.26;74.82;101211.69;4435183;32;12341;-78
2020/12/26 09:44:18;;;;;;;;;34.75;34.75;;;;;6.16;74.66;101211.78;4433607;32;13091;-78
2020/12/26 09:47:13;;;;;;;;;27.00;27.00;;;;;6.00;75.35;101208.38;4433333;32;12337;-78
2020/12/26 09:50:09;;;;;;;;;51.00;43.00;;;;;6.47;74.31;101203.25;4431805;32;12467;-78
2020/12/26 09:53:06;;;;;;;;;41.25;40.00;;;;;6.62;73.86;101192.09;4434043;32;12993;-79
2020/12/26 09:55:42;;;;;;;;;47.75;41.25;;;;;6.58;73.89;101196.53;4433767;32;12490;-79
2020/12/26 09:58:12;;;;;;;;;47.50;42.00;;;;;6.64;73.84;101187.13;4427945;32;12412;-78
2020/12/26 10:00:53;;;;;;;;;44.00;42.25;;;;;6.76;73.60;101192.22;4418211;32;12353;-78
2020/12/26 10:03:22;;;;;;;;;44.00;36.75;;;;;6.65;74.03;101197.00;4428479;32;12399;-78
2020/12/26 10:06:19;;;;;;;;;39.00;35.00;;;;;6.66;73.88;101191.19;4432178;32;12346;-78
2020/12/26 10:08:48;;;;;;;;;33.50;33.50;;;;;6.93;73.11;101189.81;4434058;32;12348;-78
2020/12/26 10:11:44;;;;;;;;;48.00;43.50;;;;;6.97;72.71;101188.91;4434154;32;12345;-78
2020/12/26 10:14:39;;;;;;;;;41.50;40.25;;;;;7.27;73.06;101186.88;4432714;32;12325;-79
2020/12/26 10:17:24;;;;;;;;;37.25;34.25;;;;;6.86;72.40;101186.59;4433877;32;12427;-79
2020/12/26 10:20:21;;;;;;;;;35.50;35.50;;;;;6.80;72.00;101185.81;4433110;32;12425;-79
2020/12/26 10:22:56;;;;;;;;;41.50;39.75;;;;;6.79;72.18;101180.62;4434979;32;12374;-79
2020/12/26 10:25:53;;;;;;;;;47.00;42.00;;;;;7.10;72.29;101181.88;4432157;32;13092;-79
2020/12/26 10:28:48;;;;;;;;;36.50;36.50;;;;;7.28;71.90;101183.00;4429609;32;12363;-78
2020/12/26 10:31:29;;;;;;;;;32.00;29.50;;;;;7.28;71.73;101194.00;4434508;32;12351;-78
2020/12/26 10:34:03;;;;;;;;;32.25;32.25;;;;;6.89;71.41;101188.75;4433598;32;13068;-79
2020/12/26 10:36:30;;;;;;;;;14.50;14.50;;;;;6.62;71.09;101200.34;4434347;32;12464;-79
2020/12/26 10:39:26;;;;;;;;;35.75;35.75;;;;;6.65;71.05;101194.25;4432608;32;12458;-79
2020/12/26 10:42:22;;;;;;;;;39.25;39.25;;;;;6.63;71.72;101199.22;4423458;32;12422;-78
2020/12/26 10:45:17;;;;;;;;;41.25;38.25;;;;;6.91;71.10;101192.84;4418002;32;12392;-78
2020/12/26 10:48:13;;;;;;;;;58.50;49.00;;;;;6.75;70.83;101196.91;4419369;32;12506;-78
2020/12/26 10:51:12;;;;;;;;;60.00;51.25;;;;;7.05;70.69;101205.88;4420498;32;12438;-78
2020/12/26 10:54:09;;;;;;;;;54.75;47.25;;;;;7.29;71.01;101208.59;4420828;32;12387;-77
2020/12/26 10:57:04;;;;;;;;;57.25;47.75;;;;;7.33;70.48;101213.19;4419696;32;13116;-79
2020/12/26 10:59:32;;;;;;;;;61.50;49.25;;;;;7.43;70.39;101206.72;4419678;32;12499;-79
2020/12/26 11:02:02;;;;;;;;;35.25;34.50;;;;;7.43;70.22;101206.72;4421154;32;12405;-79
2020/12/26 11:04:58;;;;;;;;;32.00;32.00;;;;;7.40;69.21;101210.09;4419677;32;12387;-78
2020/12/26 11:07:53;;;;;;;;;31.25;31.25;;;;;7.22;69.18;101207.03;4422624;32;12381;-77
2020/12/26 11:10:22;;;;;;;;;28.00;28.00;;;;;7.40;68.62;101213.66;4422254;32;13050;-76
2020/12/26 11:13:18;;;;;;;;;28.75;27.75;;;;;7.49;68.57;101236.63;4431993;32;12510;-77
2020/12/26 11:16:16;;;;;;;;;26.50;23.75;;;;;7.33;68.44;101231.66;4428954;32;12386;-78
2020/12/26 11:19:14;;;;;;;;;22.00;22.00;;;;;7.35;69.15;101251.41;4434411;32;12484;-78
2020/12/26 11:21:55;;;;;;;;;24.50;23.50;;;;;7.45;68.69;101248.56;4435738;32;12308;-78
2020/12/26 11:24:44;;;;;;;;;27.75;25.75;;;;;7.25;69.07;101244.94;4434038;32;12348;-79
2020/12/26 11:27:12;;;;;;;;;22.25;21.50;;;;;7.05;69.79;101260.87;4434298;32;12341;-79
2020/12/26 11:30:08;;;;;;;;;29.00;28.00;;;;;7.11;69.46;101262.47;4433689;32;12396;-78
2020/12/26 11:32:44;;;;;;;;;25.00;23.25;;;;;6.94;69.41;101252.75;4431566;32;12317;-78
2020/12/26 11:35:13;;;;;;;;;53.25;43.50;;;;;7.20;69.43;101260.69;4431926;32;13031;-78
2020/12/26 11:38:09;;;;;;;;;58.25;48.00;;;;;7.02;69.62;101275.22;4450283;32;12333;-78
2020/12/26 11:41:05;;;;;;;;;66.00;54.75;;;;;7.02;69.88;101292.53;4441364;32;12410;-79
2020/12/26 11:44:01;;;;;;;;;69.25;58.00;;;;;7.30;69.18;101292.78;4434214;32;12420;-79
2020/12/26 11:46:38;;;;;;;;;60.50;49.75;;;;;7.19;68.87;101281.06;4425984;32;12302;-79
2020/12/26 11:49:06;;;;;;;;;61.75;53.25;;;;;7.06;68.91;101296.34;4434590;32;12346;-79
2020/12/26 11:52:02;;;;;;;;;48.00;43.50;;;;;6.90;69.28;101311.37;4429908;32;12294;-78
2020/12/26 11:54:59;;;;;;;;;48.50;45.00;;;;;7.05;69.18;101338.69;4419314;32;12403;-78
2020/12/26 11:57:55;;;;;;;;;48.75;43.00;;;;;6.97;69.63;101340.16;4425225;32;12416;-79
2020/12/26 12:00:25;;;;;;;;;53.75;47.25;;;;;7.00;69.11;101338.78;4427371;32;12346;-78
2020/12/26 12:03:21;;;;;;;;;53.25;46.75;;;;;7.05;69.21;101344.19;4423242;32;12429;-78
2020/12/26 12:06:12;;;;;;;;;53.00;45.25;;;;;7.08;68.82;101332.63;4425194;32;13106;-78
2020/12/26 12:08:58;;;;;;;;;57.00;47.75;;;;;6.80;68.84;101337.03;4434204;32;12450;-77
2020/12/26 12:11:53;;;;;;;;;75.50;59.50;;;;;6.64;69.88;101335.53;4432739;32;12350;-77
2020/12/26 12:14:24;;;;;;;;;83.50;61.50;;;;;6.67;69.86;101344.06;4434053;32;12360;-76
2020/12/26 12:17:20;;;;;;;;;62.25;50.75;;;;;6.66;69.69;101366.31;4434071;32;12365;-79
2020/12/26 12:20:17;;;;;;;;;63.00;50.25;;;;;6.57;69.94;101373.53;4433794;32;12369;-78
2020/12/26 12:23:12;;;;;;;;;54.50;41.75;;;;;6.21;70.90;101372.97;4434031;32;12527;-77
2020/12/26 12:26:08;;;;;;;;;41.00;40.50;;;;;6.23;70.98;101359.78;4444380;32;12436;-78
2020/12/26 12:29:03;;;;;;;;;33.00;32.75;;;;;6.03;70.86;101350.56;4433983;32;12450;-77
2020/12/26 12:31:59;;;;;;;;;37.00;36.75;;;;;5.94;71.16;101373.44;4433729;32;12490;-77
2020/12/26 12:34:29;;;;;;;;;46.00;43.25;;;;;6.02;70.71;101368.16;4434123;32;12366;-77
2020/12/26 12:37:27;;;;;;;;;41.00;40.00;;;;;5.77;71.10;101380.06;4433746;32;12437;-78
2020/12/26 12:39:58;;;;;;;;;45.25;42.75;;;;;5.79;71.03;101386.09;4434072;32;13050;-78
2020/12/26 12:42:33;;;;;;;;;48.00;42.25;;;;;5.89;70.82;101387.97;4434016;32;12383;-78
2020/12/26 12:45:16;;;;;;;;;40.00;40.00;;;;;5.87;71.16;101401.97;4422706;32;12347;-78
2020/12/26 12:47:58;;;;;;;;;40.25;39.25;;;;;5.59;71.42;101355.97;4434258;32;12355;-78
2020/12/26 12:50:26;;;;;;;;;32.00;32.00;;;;;5.68;71.66;101376.28;4434372;32;12390;-79